sensor_id;sensor_type;location;lat;lon;timestamp;pressure;altitude;pressure_sealevel;temperature;humidity
58245;BME280;44550;43.864;25.986;2022-12-07T00:03:37;101292.47;;;7.42;100.00
58245;BME280;44550;43.864;25.986;2022-12-07T00:07:37;101290.19;;;7.54;100.00
58245;BME280;44550;43.864;25.986;2022-12-07T00:11:36;101270.56;;;7.66;100.00
58245;BME280;44550;43.864;25.986;2022-12-07T00:15:37;101288.47;;;7.87;100.00
58245;BME280;44550;43.864;25.986;2022-12-07T00:19:37;101275.88;;;7.70;100.00
58245;BME280;44550;43.864;25.986;2022-12-07T00:23:36;101258.22;;;7.59;100.00
58245;BME280;44550;43.864;25.986;2022-12-07T00:27:36;101291.16;;;7.90;100.00
58245;BME280;44550;43.864;25.986;2022-12-07T00:31:37;101275.25;;;7.79;100.00
58245;BME280;44550;43.864;25.986;2022-12-07T00:35:37;101297.13;;;7.86;100.00
58245;BME280;44550;43.864;25.986;2022-12-07T00:39:36;101281.41;;;7.83;100.00
58245;BME280;44550;43.864;25.986;2022-12-07T00:43:36;101295.13;;;8.09;100.00
58245;BME280;44550;43.864;25.986;2022-12-07T00:47:37;101291.94;;;8.20;100.00
58245;BME280;44550;43.864;25.986;2022-12-07T00:51:36;101307.53;;;8.19;99.53
58245;BME280;44550;43.864;25.986;2022-12-07T00:55:36;101303.75;;;8.06;99.56
58245;BME280;44550;43.864;25.986;2022-12-07T00:59:36;101297.91;;;8.16;99.80
58245;BME280;44550;43.864;25.986;2022-12-07T01:03:38;101286.88;;;8.27;99.19
58245;BME280;44550;43.864;25.986;2022-12-07T01:07:38;101290.19;;;8.19;98.87
58245;BME280;44550;43.864;25.986;2022-12-07T01:11:37;101261.13;;;8.04;98.94
58245;BME280;44550;43.864;25.986;2022-12-07T01:15:39;101286.22;;;8.00;99.01
58245;BME280;44550;43.864;25.986;2022-12-07T01:19:40;101280.47;;;7.79;99.97
58245;BME280;44550;43.864;25.986;2022-12-07T01:23:40;101283.66;;;7.69;100.00
58245;BME280;44550;43.864;25.986;2022-12-07T01:27:39;101266.75;;;7.86;100.00
58245;BME280;44550;43.864;25.986;2022-12-07T01:31:39;101260.91;;;7.62;100.00
58245;BME280;44550;43.864;25.986;2022-12-07T01:35:40;101244.56;;;7.67;100.00
58245;BME280;44550;43.864;25.986;2022-12-07T01:39:39;101205.59;;;7.70;100.00
58245;BME280;44550;43.864;25.986;2022-12-07T01:44:07;101241.00;;;7.97;99.92
58245;BME280;44550;43.864;25.986;2022-12-07T01:48:07;101245.09;;;8.22;98.71
58245;BME280;44550;43.864;25.986;2022-12-07T01:52:15;101245.34;;;8.31;98.01
58245;BME280;44550;43.864;25.986;2022-12-07T01:56:19;101238.56;;;8.38;97.26
58245;BME280;44550;43.864;25.986;2022-12-07T02:00:20;101243.00;;;8.42;96.84
58245;BME280;44550;43.864;25.986;2022-12-07T02:04:20;101223.63;;;8.32;96.93
58245;BME280;44550;43.864;25.986;2022-12-07T02:08:22;101261.00;;;8.33;96.91
58245;BME280;44550;43.864;25.986;2022-12-07T02:12:22;101260.31;;;7.72;99.00
58245;BME280;44550;43.864;25.986;2022-12-07T02:16:29;101271.59;;;7.72;100.00
58245;BME280;44550;43.864;25.986;2022-12-07T02:20:33;101228.03;;;7.34;100.00
58245;BME280;44550;43.864;25.986;2022-12-07T02:24:48;101226.97;;;7.27;100.00
58245;BME280;44550;43.864;25.986;2022-12-07T02:29:07;101254.03;;;7.32;100.00
58245;BME280;44550;43.864;25.986;2022-12-07T02:33:13;101247.00;;;7.29;100.00
58245;BME280;44550;43.864;25.986;2022-12-07T02:37:21;101250.66;;;7.36;100.00
58245;BME280;44550;43.864;25.986;2022-12-07T02:41:25;101189.91;;;7.02;100.00
58245;BME280;44550;43.864;25.986;2022-12-07T02:45:29;101243.34;;;7.23;100.00
58245;BME280;44550;43.864;25.986;2022-12-07T02:49:30;101246.56;;;7.14;100.00
58245;BME280;44550;43.864;25.986;2022-12-07T02:53:34;101246.66;;;7.17;100.00
58245;BME280;44550;43.864;25.986;2022-12-07T02:57:45;101205.69;;;6.80;100.00
58245;BME280;44550;43.864;25.986;2022-12-07T03:01:55;101230.63;;;7.02;100.00
58245;BME280;44550;43.864;25.986;2022-12-07T03:06:09;101234.03;;;7.01;100.00
58245;BME280;44550;43.864;25.986;2022-12-07T03:10:16;101215.81;;;6.99;100.00
58245;BME280;44550;43.864;25.986;2022-12-07T03:14:22;101237.56;;;7.03;100.00
58245;BME280;44550;43.864;25.986;2022-12-07T03:18:31;101228.63;;;6.93;100.00
58245;BME280;44550;43.864;25.986;2022-12-07T03:22:37;101222.53;;;6.93;100.00
58245;BME280;44550;43.864;25.986;2022-12-07T03:26:42;101221.31;;;6.81;100.00
58245;BME280;44550;43.864;25.986;2022-12-07T03:30:47;101202.44;;;6.87;100.00
58245;BME280;44550;43.864;25.986;2022-12-07T03:34:54;101216.31;;;6.88;100.00
58245;BME280;44550;43.864;25.986;2022-12-07T03:39:02;101197.94;;;6.81;100.00
58245;BME280;44550;43.864;25.986;2022-12-07T03:43:03;101213.34;;;6.75;100.00
58245;BME280;44550;43.864;25.986;2022-12-07T03:47:05;101227.97;;;6.72;100.00
58245;BME280;44550;43.864;25.986;2022-12-07T03:51:14;101196.69;;;6.69;100.00
58245;BME280;44550;43.864;25.986;2022-12-07T03:55:22;101202.03;;;6.73;100.00
58245;BME280;44550;43.864;25.986;2022-12-07T03:59:24;101225.06;;;6.90;100.00
58245;BME280;44550;43.864;25.986;2022-12-07T04:03:24;101229.41;;;6.91;100.00
58245;BME280;44550;43.864;25.986;2022-12-07T04:07:26;101206.66;;;6.83;100.00
58245;BME280;44550;43.864;25.986;2022-12-07T04:11:26;101209.38;;;6.58;100.00
58245;BME280;44550;43.864;25.986;2022-12-07T04:15:29;101229.09;;;6.80;100.00
58245;BME280;44550;43.864;25.986;2022-12-07T04:19:30;101212.34;;;7.00;100.00
58245;BME280;44550;43.864;25.986;2022-12-07T04:23:32;101221.91;;;7.01;100.00
58245;BME280;44550;43.864;25.986;2022-12-07T04:27:32;101225.44;;;7.03;100.00
58245;BME280;44550;43.864;25.986;2022-12-07T04:31:31;101198.66;;;6.76;100.00
58245;BME280;44550;43.864;25.986;2022-12-07T04:35:34;101220.81;;;6.93;100.00
58245;BME280;44550;43.864;25.986;2022-12-07T04:39:36;101218.06;;;6.89;100.00
58245;BME280;44550;43.864;25.986;2022-12-07T04:43:37;101216.03;;;6.78;100.00
58245;BME280;44550;43.864;25.986;2022-12-07T04:47:36;101211.88;;;6.83;100.00
58245;BME280;44550;43.864;25.986;2022-12-07T04:51:36;101201.28;;;6.77;100.00
58245;BME280;44550;43.864;25.986;2022-12-07T04:55:39;101196.31;;;6.85;100.00
58245;BME280;44550;43.864;25.986;2022-12-07T04:59:38;101194.16;;;7.00;100.00
58245;BME280;44550;43.864;25.986;2022-12-07T05:03:42;101185.34;;;6.95;100.00
58245;BME280;44550;43.864;25.986;2022-12-07T05:07:42;101227.03;;;7.28;100.00
58245;BME280;44550;43.864;25.986;2022-12-07T05:11:44;101226.28;;;7.33;100.00
58245;BME280;44550;43.864;25.986;2022-12-07T05:15:43;101228.63;;;7.23;100.00
58245;BME280;44550;43.864;25.986;2022-12-07T05:19:42;101221.03;;;7.01;100.00
58245;BME280;44550;43.864;25.986;2022-12-07T05:23:42;101240.00;;;6.97;100.00
58245;BME280;44550;43.864;25.986;2022-12-07T05:27:47;101219.84;;;6.90;100.00
58245;BME280;44550;43.864;25.986;2022-12-07T05:31:48;101212.63;;;6.79;100.00
58245;BME280;44550;43.864;25.986;2022-12-07T05:35:48;101243.75;;;6.78;100.00
58245;BME280;44550;43.864;25.986;2022-12-07T05:39:47;101237.97;;;6.87;100.00
58245;BME280;44550;43.864;25.986;2022-12-07T05:43:49;101246.22;;;6.73;100.00
58245;BME280;44550;43.864;25.986;2022-12-07T05:47:49;101212.94;;;6.62;100.00
58245;BME280;44550;43.864;25.986;2022-12-07T05:51:51;101235.19;;;6.82;100.00
58245;BME280;44550;43.864;25.986;2022-12-07T05:55:52;101206.75;;;6.87;100.00
58245;BME280;44550;43.864;25.986;2022-12-07T05:59:53;101227.84;;;6.96;100.00
58245;BME280;44550;43.864;25.986;2022-12-07T06:03:53;101203.31;;;6.88;100.00
58245;BME280;44550;43.864;25.986;2022-12-07T06:07:53;101195.59;;;6.89;100.00
58245;BME280;44550;43.864;25.986;2022-12-07T06:12:03;101208.66;;;6.92;100.00
58245;BME280;44550;43.864;25.986;2022-12-07T06:16:21;101228.09;;;7.05;100.00
58245;BME280;44550;43.864;25.986;2022-12-07T06:20:21;101229.13;;;7.12;100.00
58245;BME280;44550;43.864;25.986;2022-12-07T06:24:21;101232.47;;;7.06;100.00
58245;BME280;44550;43.864;25.986;2022-12-07T06:28:21;101212.41;;;7.02;100.00
58245;BME280;44550;43.864;25.986;2022-12-07T06:32:23;101231.09;;;7.19;100.00
58245;BME280;44550;43.864;25.986;2022-12-07T06:36:24;101214.59;;;7.18;100.00
58245;BME280;44550;43.864;25.986;2022-12-07T06:40:27;101229.44;;;7.52;100.00
58245;BME280;44550;43.864;25.986;2022-12-07T06:44:28;101230.41;;;7.58;100.00
58245;BME280;44550;43.864;25.986;2022-12-07T06:48:30;101237.50;;;7.62;99.99
58245;BME280;44550;43.864;25.986;2022-12-07T06:52:30;101226.31;;;7.34;99.29
58245;BME280;44550;43.864;25.986;2022-12-07T06:56:34;101184.06;;;7.11;99.18
58245;BME280;44550;43.864;25.986;2022-12-07T07:00:36;101226.00;;;7.23;99.84
58245;BME280;44550;43.864;25.986;2022-12-07T07:04:38;101209.66;;;6.97;99.75
58245;BME280;44550;43.864;25.986;2022-12-07T07:08:38;101248.06;;;7.06;100.00
58245;BME280;44550;43.864;25.986;2022-12-07T07:12:38;101257.63;;;6.78;100.00
58245;BME280;44550;43.864;25.986;2022-12-07T07:16:38;101216.34;;;6.59;100.00
58245;BME280;44550;43.864;25.986;2022-12-07T07:20:40;101224.13;;;6.32;100.00
58245;BME280;44550;43.864;25.986;2022-12-07T07:24:42;101219.97;;;6.10;100.00
58245;BME280;44550;43.864;25.986;2022-12-07T07:28:41;101252.16;;;6.42;100.00
58245;BME280;44550;43.864;25.986;2022-12-07T07:32:42;101226.50;;;6.24;100.00
58245;BME280;44550;43.864;25.986;2022-12-07T07:36:46;101249.94;;;6.26;100.00
58245;BME280;44550;43.864;25.986;2022-12-07T07:40:45;101250.50;;;6.17;100.00
58245;BME280;44550;43.864;25.986;2022-12-07T07:44:45;101200.94;;;6.09;100.00
58245;BME280;44550;43.864;25.986;2022-12-07T07:48:45;101204.31;;;6.07;100.00
58245;BME280;44550;43.864;25.986;2022-12-07T07:52:47;101231.50;;;6.18;100.00
58245;BME280;44550;43.864;25.986;2022-12-07T07:56:47;101250.06;;;6.30;100.00
58245;BME280;44550;43.864;25.986;2022-12-07T08:00:47;101224.00;;;6.27;100.00
58245;BME280;44550;43.864;25.986;2022-12-07T08:04:47;101246.94;;;6.41;100.00
58245;BME280;44550;43.864;25.986;2022-12-07T08:08:49;101188.38;;;6.23;100.00
58245;BME280;44550;43.864;25.986;2022-12-07T08:12:49;101184.81;;;6.20;100.00
58245;BME280;44550;43.864;25.986;2022-12-07T08:17:05;101242.13;;;6.53;100.00
58245;BME280;44550;43.864;25.986;2022-12-07T08:21:06;101226.28;;;6.45;100.00
58245;BME280;44550;43.864;25.986;2022-12-07T08:25:11;101248.84;;;6.75;100.00
58245;BME280;44550;43.864;25.986;2022-12-07T08:29:13;101213.28;;;6.72;100.00
58245;BME280;44550;43.864;25.986;2022-12-07T08:33:13;101192.50;;;6.45;100.00
58245;BME280;44550;43.864;25.986;2022-12-07T08:37:13;101224.09;;;6.86;100.00
58245;BME280;44550;43.864;25.986;2022-12-07T08:41:16;101231.97;;;7.19;100.00
58245;BME280;44550;43.864;25.986;2022-12-07T08:45:18;101227.69;;;7.21;98.98
58245;BME280;44550;43.864;25.986;2022-12-07T08:49:26;101193.94;;;6.93;99.53
58245;BME280;44550;43.864;25.986;2022-12-07T08:53:27;101233.72;;;7.20;98.97
58245;BME280;44550;43.864;25.986;2022-12-07T08:57:29;101206.88;;;7.21;98.86
58245;BME280;44550;43.864;25.986;2022-12-07T09:01:30;101217.84;;;7.11;98.30
58245;BME280;44550;43.864;25.986;2022-12-07T09:05:37;101214.50;;;6.85;98.96
58245;BME280;44550;43.864;25.986;2022-12-07T09:09:38;101212.06;;;6.32;100.00
58245;BME280;44550;43.864;25.986;2022-12-07T09:13:44;101207.31;;;6.48;100.00
58245;BME280;44550;43.864;25.986;2022-12-07T09:17:44;101196.16;;;6.79;100.00
58245;BME280;44550;43.864;25.986;2022-12-07T09:21:43;101137.88;;;6.14;100.00
58245;BME280;44550;43.864;25.986;2022-12-07T09:25:44;101196.38;;;6.58;100.00
58245;BME280;44550;43.864;25.986;2022-12-07T09:29:46;101095.09;;;6.29;100.00
58245;BME280;44550;43.864;25.986;2022-12-07T09:33:45;101197.94;;;6.81;100.00
58245;BME280;44550;43.864;25.986;2022-12-07T09:37:44;101166.78;;;6.53;100.00
58245;BME280;44550;43.864;25.986;2022-12-07T09:41:44;101200.72;;;6.88;100.00
58245;BME280;44550;43.864;25.986;2022-12-07T09:45:46;101195.41;;;7.15;100.00
58245;BME280;44550;43.864;25.986;2022-12-07T09:49:47;101173.25;;;7.27;100.00
58245;BME280;44550;43.864;25.986;2022-12-07T09:53:47;101182.97;;;7.35;99.94
58245;BME280;44550;43.864;25.986;2022-12-07T09:57:48;101176.53;;;7.53;99.77
58245;BME280;44550;43.864;25.986;2022-12-07T10:01:50;101166.03;;;7.49;98.54
58245;BME280;44550;43.864;25.986;2022-12-07T10:05:51;101163.00;;;7.67;98.30
58245;BME280;44550;43.864;25.986;2022-12-07T10:09:52;101158.59;;;7.64;97.19
58245;BME280;44550;43.864;25.986;2022-12-07T10:13:52;101154.03;;;7.90;96.25
58245;BME280;44550;43.864;25.986;2022-12-07T10:17:54;101153.59;;;8.08;94.20
58245;BME280;44550;43.864;25.986;2022-12-07T10:22:04;101149.06;;;8.01;94.79
58245;BME280;44550;43.864;25.986;2022-12-07T10:26:21;101143.84;;;7.99;94.75
58245;BME280;44550;43.864;25.986;2022-12-07T10:30:25;101144.09;;;8.10;93.06
58245;BME280;44550;43.864;25.986;2022-12-07T10:34:28;101139.72;;;8.09;93.65
58245;BME280;44550;43.864;25.986;2022-12-07T10:38:47;101131.34;;;8.22;93.66
58245;BME280;44550;43.864;25.986;2022-12-07T10:43:00;101141.03;;;8.28;93.44
58245;BME280;44550;43.864;25.986;2022-12-07T10:47:20;101145.50;;;7.96;93.69
58245;BME280;44550;43.864;25.986;2022-12-07T10:51:26;101131.34;;;7.85;94.33
58245;BME280;44550;43.864;25.986;2022-12-07T10:55:47;101120.25;;;7.92;94.35
58245;BME280;44550;43.864;25.986;2022-12-07T11:00:00;101119.06;;;8.17;93.41
58245;BME280;44550;43.864;25.986;2022-12-07T11:04:12;101114.94;;;8.27;92.49
58245;BME280;44550;43.864;25.986;2022-12-07T11:08:21;101114.78;;;8.19;92.18
58245;BME280;44550;43.864;25.986;2022-12-07T11:12:38;101101.25;;;7.97;93.40
58245;BME280;44550;43.864;25.986;2022-12-07T11:16:49;101124.47;;;8.24;91.93
58245;BME280;44550;43.864;25.986;2022-12-07T11:20:54;101098.06;;;8.09;91.96
58245;BME280;44550;43.864;25.986;2022-12-07T11:25:07;101111.13;;;8.50;91.58
58245;BME280;44550;43.864;25.986;2022-12-07T11:29:25;101111.59;;;8.72;90.77
58245;BME280;44550;43.864;25.986;2022-12-07T11:33:32;101100.44;;;8.79;89.38
58245;BME280;44550;43.864;25.986;2022-12-07T11:37:37;101091.19;;;8.94;88.25
58245;BME280;44550;43.864;25.986;2022-12-07T11:41:41;101091.19;;;8.94;88.24
58245;BME280;44550;43.864;25.986;2022-12-07T11:45:43;101093.56;;;8.82;88.74
58245;BME280;44550;43.864;25.986;2022-12-07T11:49:49;101084.06;;;8.86;88.59
58245;BME280;44550;43.864;25.986;2022-12-07T11:53:52;101083.53;;;8.58;89.11
58245;BME280;44550;43.864;25.986;2022-12-07T11:58:03;101068.00;;;8.64;88.87
58245;BME280;44550;43.864;25.986;2022-12-07T12:02:12;101067.34;;;8.75;88.98
58245;BME280;44550;43.864;25.986;2022-12-07T12:06:13;101068.75;;;8.59;89.47
58245;BME280;44550;43.864;25.986;2022-12-07T12:10:18;101061.31;;;8.79;88.33
58245;BME280;44550;43.864;25.986;2022-12-07T12:14:36;101064.94;;;8.87;87.12
58245;BME280;44550;43.864;25.986;2022-12-07T12:19:01;101053.63;;;8.86;87.29
58245;BME280;44550;43.864;25.986;2022-12-07T12:23:12;101034.00;;;8.60;86.98
58245;BME280;44550;43.864;25.986;2022-12-07T12:27:20;101046.25;;;8.64;88.31
58245;BME280;44550;43.864;25.986;2022-12-07T12:31:36;101037.50;;;8.60;87.81
58245;BME280;44550;43.864;25.986;2022-12-07T12:35:37;101036.69;;;8.63;88.17
58245;BME280;44550;43.864;25.986;2022-12-07T12:39:37;101035.59;;;8.52;88.63
58245;BME280;44550;43.864;25.986;2022-12-07T12:43:44;101024.25;;;8.48;88.65
58245;BME280;44550;43.864;25.986;2022-12-07T12:47:59;101028.59;;;8.49;88.90
58245;BME280;44550;43.864;25.986;2022-12-07T12:51:59;101012.09;;;8.50;89.99
58245;BME280;44550;43.864;25.986;2022-12-07T12:56:27;101019.13;;;8.54;89.58
58245;BME280;44550;43.864;25.986;2022-12-07T13:00:31;101022.03;;;8.68;88.34
58245;BME280;44550;43.864;25.986;2022-12-07T13:04:40;101033.81;;;8.51;88.92
58245;BME280;44550;43.864;25.986;2022-12-07T13:08:47;101034.88;;;8.59;88.40
58245;BME280;44550;43.864;25.986;2022-12-07T13:12:55;101032.00;;;8.46;89.38
58245;BME280;44550;43.864;25.986;2022-12-07T13:16:54;101024.50;;;8.62;88.65
58245;BME280;44550;43.864;25.986;2022-12-07T13:20:57;101024.66;;;8.69;88.73
58245;BME280;44550;43.864;25.986;2022-12-07T13:24:59;101008.94;;;8.65;88.19
58245;BME280;44550;43.864;25.986;2022-12-07T13:29:09;101004.72;;;8.31;89.07
58245;BME280;44550;43.864;25.986;2022-12-07T13:33:09;100999.03;;;8.06;90.47
58245;BME280;44550;43.864;25.986;2022-12-07T13:37:15;100966.28;;;7.78;91.42
58245;BME280;44550;43.864;25.986;2022-12-07T13:41:20;100995.13;;;7.86;92.42
58245;BME280;44550;43.864;25.986;2022-12-07T13:45:22;100998.59;;;7.86;93.40
58245;BME280;44550;43.864;25.986;2022-12-07T13:49:47;100987.03;;;7.73;93.80
58245;BME280;44550;43.864;25.986;2022-12-07T13:53:53;100987.59;;;7.60;95.33
58245;BME280;44550;43.864;25.986;2022-12-07T13:57:54;100969.16;;;7.51;94.93
58245;BME280;44550;43.864;25.986;2022-12-07T14:01:54;100997.00;;;7.93;95.30
58245;BME280;44550;43.864;25.986;2022-12-07T14:06:06;101005.19;;;8.10;92.95
58245;BME280;44550;43.864;25.986;2022-12-07T14:10:26;100997.81;;;7.90;93.34
58245;BME280;44550;43.864;25.986;2022-12-07T14:14:27;100994.97;;;7.80;94.78
58245;BME280;44550;43.864;25.986;2022-12-07T14:18:37;100953.06;;;7.67;94.97
58245;BME280;44550;43.864;25.986;2022-12-07T14:22:38;100991.00;;;7.97;94.72
58245;BME280;44550;43.864;25.986;2022-12-07T14:26:40;100979.50;;;7.86;94.80
58245;BME280;44550;43.864;25.986;2022-12-07T14:30:41;100975.19;;;7.88;94.80
58245;BME280;44550;43.864;25.986;2022-12-07T14:34:41;100961.66;;;7.65;95.30
58245;BME280;44550;43.864;25.986;2022-12-07T14:38:40;100985.06;;;7.63;95.99
58245;BME280;44550;43.864;25.986;2022-12-07T14:42:43;100986.09;;;7.71;96.43
58245;BME280;44550;43.864;25.986;2022-12-07T14:46:43;100945.50;;;7.40;96.52
58245;BME280;44550;43.864;25.986;2022-12-07T14:50:46;100983.13;;;7.54;97.02
58245;BME280;44550;43.864;25.986;2022-12-07T14:55:14;100986.34;;;7.44;98.33
58245;BME280;44550;43.864;25.986;2022-12-07T14:59:18;100983.56;;;7.35;98.96
58245;BME280;44550;43.864;25.986;2022-12-07T15:03:17;100973.19;;;7.38;99.58
58245;BME280;44550;43.864;25.986;2022-12-07T15:07:19;100974.06;;;7.37;100.00
58245;BME280;44550;43.864;25.986;2022-12-07T15:11:20;100968.94;;;7.40;100.00
58245;BME280;44550;43.864;25.986;2022-12-07T15:15:22;100978.22;;;7.29;100.00
58245;BME280;44550;43.864;25.986;2022-12-07T15:19:26;100953.44;;;7.09;100.00
58245;BME280;44550;43.864;25.986;2022-12-07T15:23:26;100973.00;;;7.29;100.00
58245;BME280;44550;43.864;25.986;2022-12-07T15:27:26;100964.75;;;7.11;100.00
58245;BME280;44550;43.864;25.986;2022-12-07T15:31:27;100958.75;;;7.13;100.00
58245;BME280;44550;43.864;25.986;2022-12-07T15:35:46;100937.03;;;6.76;100.00
58245;BME280;44550;43.864;25.986;2022-12-07T15:39:46;100960.53;;;6.81;100.00
58245;BME280;44550;43.864;25.986;2022-12-07T15:43:45;100965.47;;;6.70;100.00
58245;BME280;44550;43.864;25.986;2022-12-07T15:48:03;100964.94;;;6.83;100.00
58245;BME280;44550;43.864;25.986;2022-12-07T15:52:22;100968.34;;;6.81;100.00
58245;BME280;44550;43.864;25.986;2022-12-07T15:56:22;100988.06;;;6.73;100.00
58245;BME280;44550;43.864;25.986;2022-12-07T16:00:21;100987.25;;;6.75;100.00
58245;BME280;44550;43.864;25.986;2022-12-07T16:04:26;100978.97;;;6.57;100.00
58245;BME280;44550;43.864;25.986;2022-12-07T16:08:26;100946.34;;;6.35;100.00
58245;BME280;44550;43.864;25.986;2022-12-07T16:12:32;100965.25;;;6.29;100.00
58245;BME280;44550;43.864;25.986;2022-12-07T16:16:31;100977.69;;;6.41;100.00
58245;BME280;44550;43.864;25.986;2022-12-07T16:20:33;100981.91;;;6.38;100.00
58245;BME280;44550;43.864;25.986;2022-12-07T16:24:32;100987.16;;;6.39;100.00
58245;BME280;44550;43.864;25.986;2022-12-07T16:28:32;100975.94;;;6.40;100.00
58245;BME280;44550;43.864;25.986;2022-12-07T16:32:31;100941.56;;;6.19;100.00
58245;BME280;44550;43.864;25.986;2022-12-07T16:36:33;100967.97;;;6.34;100.00
58245;BME280;44550;43.864;25.986;2022-12-07T16:40:52;100972.41;;;6.38;100.00
58245;BME280;44550;43.864;25.986;2022-12-07T16:44:52;100972.22;;;6.32;100.00
58245;BME280;44550;43.864;25.986;2022-12-07T16:48:51;100981.78;;;6.33;100.00
58245;BME280;44550;43.864;25.986;2022-12-07T16:52:53;100980.06;;;6.33;100.00
58245;BME280;44550;43.864;25.986;2022-12-07T16:56:53;100966.78;;;6.23;100.00
58245;BME280;44550;43.864;25.986;2022-12-07T17:00:52;100975.53;;;6.26;100.00
58245;BME280;44550;43.864;25.986;2022-12-07T17:04:53;100981.63;;;6.27;100.00
58245;BME280;44550;43.864;25.986;2022-12-07T17:08:56;100986.50;;;6.16;100.00
58245;BME280;44550;43.864;25.986;2022-12-07T17:12:55;100978.84;;;5.92;100.00
58245;BME280;44550;43.864;25.986;2022-12-07T17:16:55;100976.53;;;6.00;100.00
58245;BME280;44550;43.864;25.986;2022-12-07T17:20:54;100985.47;;;6.09;100.00
58245;BME280;44550;43.864;25.986;2022-12-07T17:25:04;100988.09;;;6.11;100.00
58245;BME280;44550;43.864;25.986;2022-12-07T17:29:05;100976.84;;;6.12;100.00
58245;BME280;44550;43.864;25.986;2022-12-07T17:33:08;100979.28;;;6.06;100.00
58245;BME280;44550;43.864;25.986;2022-12-07T17:37:07;100976.44;;;5.97;100.00
58245;BME280;44550;43.864;25.986;2022-12-07T17:41:13;100980.78;;;5.98;100.00
58245;BME280;44550;43.864;25.986;2022-12-07T17:45:33;100990.47;;;6.03;100.00
58245;BME280;44550;43.864;25.986;2022-12-07T17:49:33;100998.00;;;5.96;100.00
58245;BME280;44550;43.864;25.986;2022-12-07T17:53:32;100991.56;;;5.83;100.00
58245;BME280;44550;43.864;25.986;2022-12-07T17:57:37;100996.56;;;5.77;100.00
58245;BME280;44550;43.864;25.986;2022-12-07T18:01:37;101017.53;;;5.84;100.00
58245;BME280;44550;43.864;25.986;2022-12-07T18:05:37;101026.72;;;6.00;100.00
58245;BME280;44550;43.864;25.986;2022-12-07T18:09:37;101013.53;;;5.94;100.00
58245;BME280;44550;43.864;25.986;2022-12-07T18:13:39;101008.47;;;5.99;100.00
58245;BME280;44550;43.864;25.986;2022-12-07T18:17:39;101022.72;;;6.11;100.00
58245;BME280;44550;43.864;25.986;2022-12-07T18:21:38;101018.28;;;6.07;100.00
58245;BME280;44550;43.864;25.986;2022-12-07T18:25:38;101020.28;;;6.18;100.00
58245;BME280;44550;43.864;25.986;2022-12-07T18:29:41;101028.94;;;6.17;100.00
58245;BME280;44550;43.864;25.986;2022-12-07T18:33:41;101034.25;;;6.21;100.00
58245;BME280;44550;43.864;25.986;2022-12-07T18:37:41;101042.66;;;6.13;100.00
58245;BME280;44550;43.864;25.986;2022-12-07T18:41:41;101041.75;;;6.12;100.00
58245;BME280;44550;43.864;25.986;2022-12-07T18:45:44;101037.41;;;6.11;100.00
58245;BME280;44550;43.864;25.986;2022-12-07T18:49:52;101032.34;;;6.16;100.00
58245;BME280;44550;43.864;25.986;2022-12-07T18:53:51;101037.63;;;6.19;100.00
58245;BME280;44550;43.864;25.986;2022-12-07T18:57:50;101023.47;;;6.07;100.00
58245;BME280;44550;43.864;25.986;2022-12-07T19:01:53;101033.41;;;6.22;100.00
58245;BME280;44550;43.864;25.986;2022-12-07T19:05:53;101018.47;;;6.15;100.00
58245;BME280;44550;43.864;25.986;2022-12-07T19:09:53;101022.88;;;6.16;100.00
58245;BME280;44550;43.864;25.986;2022-12-07T19:13:53;101020.97;;;6.10;100.00
58245;BME280;44550;43.864;25.986;2022-12-07T19:17:55;101021.84;;;6.11;100.00
58245;BME280;44550;43.864;25.986;2022-12-07T19:21:54;100995.84;;;5.82;100.00
58245;BME280;44550;43.864;25.986;2022-12-07T19:25:53;101018.78;;;5.96;100.00
58245;BME280;44550;43.864;25.986;2022-12-07T19:29:52;101013.84;;;5.76;100.00
58245;BME280;44550;43.864;25.986;2022-12-07T19:33:54;101019.44;;;5.90;100.00
58245;BME280;44550;43.864;25.986;2022-12-07T19:37:54;101013.09;;;5.80;100.00
58245;BME280;44550;43.864;25.986;2022-12-07T19:41:53;101002.19;;;5.92;100.00
58245;BME280;44550;43.864;25.986;2022-12-07T19:45:53;101001.28;;;5.90;100.00
58245;BME280;44550;43.864;25.986;2022-12-07T19:49:55;101009.97;;;5.92;100.00
58245;BME280;44550;43.864;25.986;2022-12-07T19:53:58;101010.63;;;5.85;100.00
58245;BME280;44550;43.864;25.986;2022-12-07T19:57:58;101012.53;;;5.91;100.00
58245;BME280;44550;43.864;25.986;2022-12-07T20:01:57;101000.81;;;5.75;100.00
58245;BME280;44550;43.864;25.986;2022-12-07T20:05:59;100997.22;;;5.98;100.00
58245;BME280;44550;43.864;25.986;2022-12-07T20:09:59;101004.03;;;5.95;100.00
58245;BME280;44550;43.864;25.986;2022-12-07T20:13:59;101023.09;;;5.95;100.00
58245;BME280;44550;43.864;25.986;2022-12-07T20:17:59;101036.91;;;5.94;100.00
58245;BME280;44550;43.864;25.986;2022-12-07T20:22:01;101028.34;;;5.97;100.00
58245;BME280;44550;43.864;25.986;2022-12-07T20:26:02;101015.41;;;5.98;100.00
58245;BME280;44550;43.864;25.986;2022-12-07T20:30:02;101023.38;;;6.04;100.00
58245;BME280;44550;43.864;25.986;2022-12-07T20:34:01;101024.34;;;6.08;100.00
58245;BME280;44550;43.864;25.986;2022-12-07T20:38:02;101031.91;;;6.30;100.00
58245;BME280;44550;43.864;25.986;2022-12-07T20:42:02;101034.91;;;6.14;100.00
58245;BME280;44550;43.864;25.986;2022-12-07T20:46:17;100993.28;;;6.11;100.00
58245;BME280;44550;43.864;25.986;2022-12-07T20:50:17;101026.13;;;6.39;100.00
58245;BME280;44550;43.864;25.986;2022-12-07T20:54:19;101006.88;;;6.32;100.00
58245;BME280;44550;43.864;25.986;2022-12-07T20:58:18;101046.91;;;6.71;100.00
58245;BME280;44550;43.864;25.986;2022-12-07T21:02:24;101036.34;;;6.96;100.00